sensor_id;sensor_type;location;lat;lon;timestamp;P1;durP1;ratioP1;P2;durP2;ratioP2
20727;SDS011;10525;50.154;8.198;2022-08-14T00:00:52;4.10;;;3.88;;
20727;SDS011;10525;50.154;8.198;2022-08-14T00:03:19;4.60;;;4.30;;
20727;SDS011;10525;50.154;8.198;2022-08-14T00:05:50;4.75;;;4.45;;
20727;SDS011;10525;50.154;8.198;2022-08-14T00:08:18;7.07;;;4.03;;
20727;SDS011;10525;50.154;8.198;2022-08-14T00:10:45;5.18;;;4.80;;
20727;SDS011;10525;50.154;8.198;2022-08-14T00:13:13;4.70;;;4.40;;
20727;SDS011;10525;50.154;8.198;2022-08-14T00:15:42;4.78;;;4.50;;
20727;SDS011;10525;50.154;8.198;2022-08-14T00:18:13;5.00;;;4.65;;
20727;SDS011;10525;50.154;8.198;2022-08-14T00:20:42;4.72;;;4.35;;
20727;SDS011;10525;50.154;8.198;2022-08-14T00:23:10;4.53;;;4.22;;
20727;SDS011;10525;50.154;8.198;2022-08-14T00:25:38;5.57;;;5.07;;
20727;SDS011;10525;50.154;8.198;2022-08-14T00:28:07;5.72;;;5.22;;
20727;SDS011;10525;50.154;8.198;2022-08-14T00:30:36;5.25;;;4.95;;
20727;SDS011;10525;50.154;8.198;2022-08-14T00:33:03;5.30;;;5.00;;
20727;SDS011;10525;50.154;8.198;2022-08-14T00:35:31;5.72;;;5.18;;
20727;SDS011;10525;50.154;8.198;2022-08-14T00:37:59;6.68;;;5.40;;
20727;SDS011;10525;50.154;8.198;2022-08-14T00:40:26;5.53;;;5.13;;
20727;SDS011;10525;50.154;8.198;2022-08-14T00:42:52;6.03;;;5.38;;
20727;SDS011;10525;50.154;8.198;2022-08-14T00:45:19;6.05;;;5.60;;
20727;SDS011;10525;50.154;8.198;2022-08-14T00:47:46;6.32;;;5.93;;
20727;SDS011;10525;50.154;8.198;2022-08-14T00:50:16;8.38;;;6.00;;
20727;SDS011;10525;50.154;8.198;2022-08-14T00:52:46;5.60;;;5.22;;
20727;SDS011;10525;50.154;8.198;2022-08-14T00:55:17;6.07;;;5.45;;
20727;SDS011;10525;50.154;8.198;2022-08-14T00:57:45;6.60;;;6.00;;
20727;SDS011;10525;50.154;8.198;2022-08-14T01:00:34;5.97;;;5.57;;
20727;SDS011;10525;50.154;8.198;2022-08-14T01:03:06;6.68;;;6.07;;
20727;SDS011;10525;50.154;8.198;2022-08-14T01:05:33;6.45;;;5.85;;
20727;SDS011;10525;50.154;8.198;2022-08-14T01:08:01;7.28;;;6.57;;
20727;SDS011;10525;50.154;8.198;2022-08-14T01:10:29;9.05;;;6.35;;
20727;SDS011;10525;50.154;8.198;2022-08-14T01:13:10;6.85;;;6.10;;
20727;SDS011;10525;50.154;8.198;2022-08-14T01:15:38;6.90;;;6.30;;
20727;SDS011;10525;50.154;8.198;2022-08-14T01:18:14;6.63;;;5.97;;
20727;SDS011;10525;50.154;8.198;2022-08-14T01:20:58;6.88;;;6.18;;
20727;SDS011;10525;50.154;8.198;2022-08-14T01:23:49;6.55;;;6.07;;
20727;SDS011;10525;50.154;8.198;2022-08-14T01:26:35;6.32;;;5.82;;
20727;SDS011;10525;50.154;8.198;2022-08-14T01:29:03;6.18;;;5.68;;
20727;SDS011;10525;50.154;8.198;2022-08-14T01:31:31;9.27;;;6.13;;
20727;SDS011;10525;50.154;8.198;2022-08-14T01:34:03;9.00;;;6.43;;
20727;SDS011;10525;50.154;8.198;2022-08-14T01:36:31;8.63;;;6.47;;
20727;SDS011;10525;50.154;8.198;2022-08-14T01:39:03;6.68;;;6.18;;
20727;SDS011;10525;50.154;8.198;2022-08-14T01:41:32;6.88;;;6.28;;
20727;SDS011;10525;50.154;8.198;2022-08-14T01:44:03;7.68;;;5.82;;
20727;SDS011;10525;50.154;8.198;2022-08-14T01:46:33;10.18;;;6.60;;
20727;SDS011;10525;50.154;8.198;2022-08-14T01:49:03;6.82;;;6.22;;
20727;SDS011;10525;50.154;8.198;2022-08-14T01:51:31;6.35;;;5.90;;
20727;SDS011;10525;50.154;8.198;2022-08-14T01:53:59;6.50;;;5.80;;
20727;SDS011;10525;50.154;8.198;2022-08-14T01:56:31;7.10;;;6.40;;
20727;SDS011;10525;50.154;8.198;2022-08-14T01:59:02;7.20;;;6.60;;
20727;SDS011;10525;50.154;8.198;2022-08-14T02:01:29;6.47;;;5.93;;
20727;SDS011;10525;50.154;8.198;2022-08-14T02:03:56;6.95;;;6.35;;
20727;SDS011;10525;50.154;8.198;2022-08-14T02:06:23;6.55;;;6.00;;
20727;SDS011;10525;50.154;8.198;2022-08-14T02:08:51;6.97;;;6.25;;
20727;SDS011;10525;50.154;8.198;2022-08-14T02:11:18;7.25;;;6.50;;
20727;SDS011;10525;50.154;8.198;2022-08-14T02:13:50;6.57;;;6.07;;
20727;SDS011;10525;50.154;8.198;2022-08-14T02:16:21;7.10;;;6.40;;
20727;SDS011;10525;50.154;8.198;2022-08-14T02:18:50;7.03;;;6.43;;
20727;SDS011;10525;50.154;8.198;2022-08-14T02:21:18;6.70;;;6.20;;
20727;SDS011;10525;50.154;8.198;2022-08-14T02:23:45;7.20;;;6.55;;
20727;SDS011;10525;50.154;8.198;2022-08-14T02:26:15;7.05;;;6.45;;
20727;SDS011;10525;50.154;8.198;2022-08-14T02:28:44;6.72;;;6.22;;
20727;SDS011;10525;50.154;8.198;2022-08-14T02:31:13;7.70;;;6.80;;
20727;SDS011;10525;50.154;8.198;2022-08-14T02:33:40;8.10;;;6.93;;
20727;SDS011;10525;50.154;8.198;2022-08-14T02:36:08;6.80;;;6.30;;
20727;SDS011;10525;50.154;8.198;2022-08-14T02:38:35;7.85;;;7.05;;
20727;SDS011;10525;50.154;8.198;2022-08-14T02:41:06;8.02;;;7.32;;
20727;SDS011;10525;50.154;8.198;2022-08-14T02:43:35;8.02;;;7.25;;
20727;SDS011;10525;50.154;8.198;2022-08-14T02:46:03;9.60;;;7.22;;
20727;SDS011;10525;50.154;8.198;2022-08-14T02:48:34;7.53;;;6.78;;
20727;SDS011;10525;50.154;8.198;2022-08-14T02:51:04;7.45;;;6.75;;
20727;SDS011;10525;50.154;8.198;2022-08-14T02:53:32;8.20;;;6.95;;
20727;SDS011;10525;50.154;8.198;2022-08-14T02:55:59;8.15;;;7.45;;
20727;SDS011;10525;50.154;8.198;2022-08-14T02:58:28;10.52;;;7.63;;
20727;SDS011;10525;50.154;8.198;2022-08-14T03:00:55;8.05;;;7.35;;
20727;SDS011;10525;50.154;8.198;2022-08-14T03:03:22;8.02;;;7.30;;
20727;SDS011;10525;50.154;8.198;2022-08-14T03:05:51;8.00;;;7.20;;
20727;SDS011;10525;50.154;8.198;2022-08-14T03:08:19;7.40;;;6.70;;
20727;SDS011;10525;50.154;8.198;2022-08-14T03:10:46;8.25;;;7.13;;
20727;SDS011;10525;50.154;8.198;2022-08-14T03:13:13;9.38;;;8.45;;
20727;SDS011;10525;50.154;8.198;2022-08-14T03:15:40;13.20;;;7.18;;
20727;SDS011;10525;50.154;8.198;2022-08-14T03:18:10;9.13;;;8.20;;
20727;SDS011;10525;50.154;8.198;2022-08-14T03:20:37;10.73;;;7.82;;
20727;SDS011;10525;50.154;8.198;2022-08-14T03:23:06;8.65;;;7.72;;
20727;SDS011;10525;50.154;8.198;2022-08-14T03:25:32;12.18;;;7.63;;
20727;SDS011;10525;50.154;8.198;2022-08-14T03:28:00;7.93;;;7.22;;
20727;SDS011;10525;50.154;8.198;2022-08-14T03:30:28;8.13;;;7.38;;
20727;SDS011;10525;50.154;8.198;2022-08-14T03:32:56;8.65;;;7.85;;
20727;SDS011;10525;50.154;8.198;2022-08-14T03:35:23;11.65;;;8.00;;
20727;SDS011;10525;50.154;8.198;2022-08-14T03:37:50;8.25;;;7.40;;
20727;SDS011;10525;50.154;8.198;2022-08-14T03:40:19;9.82;;;7.75;;
20727;SDS011;10525;50.154;8.198;2022-08-14T03:42:48;8.48;;;7.60;;
20727;SDS011;10525;50.154;8.198;2022-08-14T03:45:15;8.52;;;7.72;;
20727;SDS011;10525;50.154;8.198;2022-08-14T03:47:42;8.75;;;7.88;;
20727;SDS011;10525;50.154;8.198;2022-08-14T03:50:10;8.27;;;7.32;;
20727;SDS011;10525;50.154;8.198;2022-08-14T03:52:38;8.80;;;7.93;;
20727;SDS011;10525;50.154;8.198;2022-08-14T03:55:06;9.50;;;8.50;;
20727;SDS011;10525;50.154;8.198;2022-08-14T03:57:36;11.18;;;8.25;;
20727;SDS011;10525;50.154;8.198;2022-08-14T04:00:04;8.85;;;8.05;;
20727;SDS011;10525;50.154;8.198;2022-08-14T04:02:34;9.85;;;8.85;;
20727;SDS011;10525;50.154;8.198;2022-08-14T04:05:02;9.27;;;8.35;;
20727;SDS011;10525;50.154;8.198;2022-08-14T04:07:30;13.10;;;8.32;;
20727;SDS011;10525;50.154;8.198;2022-08-14T04:09:57;9.48;;;8.48;;
20727;SDS011;10525;50.154;8.198;2022-08-14T04:12:23;8.80;;;7.90;;
20727;SDS011;10525;50.154;8.198;2022-08-14T04:14:51;9.88;;;8.52;;
20727;SDS011;10525;50.154;8.198;2022-08-14T04:17:18;8.43;;;7.68;;
20727;SDS011;10525;50.154;8.198;2022-08-14T04:19:45;9.32;;;8.35;;
20727;SDS011;10525;50.154;8.198;2022-08-14T04:22:12;9.15;;;8.35;;
20727;SDS011;10525;50.154;8.198;2022-08-14T04:24:39;10.70;;;8.77;;
20727;SDS011;10525;50.154;8.198;2022-08-14T04:27:06;9.35;;;8.45;;
20727;SDS011;10525;50.154;8.198;2022-08-14T04:29:34;9.43;;;8.50;;
20727;SDS011;10525;50.154;8.198;2022-08-14T04:32:04;11.25;;;9.65;;
20727;SDS011;10525;50.154;8.198;2022-08-14T04:34:32;9.77;;;8.80;;
20727;SDS011;10525;50.154;8.198;2022-08-14T04:36:59;10.05;;;8.98;;
20727;SDS011;10525;50.154;8.198;2022-08-14T04:39:43;9.45;;;8.55;;
20727;SDS011;10525;50.154;8.198;2022-08-14T04:42:24;9.45;;;8.43;;
20727;SDS011;10525;50.154;8.198;2022-08-14T04:45:05;9.48;;;8.57;;
20727;SDS011;10525;50.154;8.198;2022-08-14T04:47:33;9.45;;;8.30;;
20727;SDS011;10525;50.154;8.198;2022-08-14T04:50:17;10.80;;;8.98;;
20727;SDS011;10525;50.154;8.198;2022-08-14T04:52:44;11.45;;;8.02;;
20727;SDS011;10525;50.154;8.198;2022-08-14T04:55:13;10.60;;;8.55;;
20727;SDS011;10525;50.154;8.198;2022-08-14T04:57:40;11.13;;;9.77;;
20727;SDS011;10525;50.154;8.198;2022-08-14T05:00:07;10.82;;;8.88;;
20727;SDS011;10525;50.154;8.198;2022-08-14T05:02:36;9.02;;;8.15;;
20727;SDS011;10525;50.154;8.198;2022-08-14T05:05:03;11.75;;;8.65;;
20727;SDS011;10525;50.154;8.198;2022-08-14T05:07:30;9.23;;;8.25;;
20727;SDS011;10525;50.154;8.198;2022-08-14T05:09:57;14.90;;;9.27;;
20727;SDS011;10525;50.154;8.198;2022-08-14T05:12:24;12.18;;;9.27;;
20727;SDS011;10525;50.154;8.198;2022-08-14T05:14:51;9.82;;;8.60;;
20727;SDS011;10525;50.154;8.198;2022-08-14T05:17:18;11.25;;;8.68;;
20727;SDS011;10525;50.154;8.198;2022-08-14T05:19:51;12.05;;;9.48;;
20727;SDS011;10525;50.154;8.198;2022-08-14T05:22:18;8.20;;;7.50;;
20727;SDS011;10525;50.154;8.198;2022-08-14T05:24:45;9.40;;;8.45;;
20727;SDS011;10525;50.154;8.198;2022-08-14T05:27:14;9.80;;;8.80;;
20727;SDS011;10525;50.154;8.198;2022-08-14T05:29:44;9.63;;;8.27;;
20727;SDS011;10525;50.154;8.198;2022-08-14T05:32:11;12.50;;;8.48;;
20727;SDS011;10525;50.154;8.198;2022-08-14T05:34:39;10.02;;;8.43;;
20727;SDS011;10525;50.154;8.198;2022-08-14T05:37:08;10.35;;;9.30;;
20727;SDS011;10525;50.154;8.198;2022-08-14T05:39:35;9.05;;;8.15;;
20727;SDS011;10525;50.154;8.198;2022-08-14T05:42:05;13.68;;;8.18;;
20727;SDS011;10525;50.154;8.198;2022-08-14T05:44:31;9.75;;;8.75;;
20727;SDS011;10525;50.154;8.198;2022-08-14T05:46:58;10.13;;;9.02;;
20727;SDS011;10525;50.154;8.198;2022-08-14T05:49:26;12.10;;;9.68;;
20727;SDS011;10525;50.154;8.198;2022-08-14T05:51:53;10.23;;;8.38;;
20727;SDS011;10525;50.154;8.198;2022-08-14T05:54:21;9.88;;;8.52;;
20727;SDS011;10525;50.154;8.198;2022-08-14T05:56:49;10.23;;;9.05;;
20727;SDS011;10525;50.154;8.198;2022-08-14T05:59:15;9.60;;;8.65;;
20727;SDS011;10525;50.154;8.198;2022-08-14T06:01:42;8.88;;;8.07;;
20727;SDS011;10525;50.154;8.198;2022-08-14T06:04:09;9.25;;;8.35;;
20727;SDS011;10525;50.154;8.198;2022-08-14T06:06:35;9.65;;;8.75;;
20727;SDS011;10525;50.154;8.198;2022-08-14T06:09:02;11.60;;;8.77;;
20727;SDS011;10525;50.154;8.198;2022-08-14T06:11:30;9.25;;;8.15;;
20727;SDS011;10525;50.154;8.198;2022-08-14T06:13:57;7.60;;;7.00;;
20727;SDS011;10525;50.154;8.198;2022-08-14T06:16:24;8.50;;;7.72;;
20727;SDS011;10525;50.154;8.198;2022-08-14T06:18:50;8.57;;;7.88;;
20727;SDS011;10525;50.154;8.198;2022-08-14T06:21:17;9.55;;;8.55;;
20727;SDS011;10525;50.154;8.198;2022-08-14T06:23:44;11.32;;;8.35;;
20727;SDS011;10525;50.154;8.198;2022-08-14T06:26:10;8.60;;;7.80;;
20727;SDS011;10525;50.154;8.198;2022-08-14T06:28:38;9.38;;;8.48;;
20727;SDS011;10525;50.154;8.198;2022-08-14T06:31:05;8.60;;;7.80;;
20727;SDS011;10525;50.154;8.198;2022-08-14T06:33:32;8.55;;;7.65;;
20727;SDS011;10525;50.154;8.198;2022-08-14T06:35:58;14.10;;;8.40;;
20727;SDS011;10525;50.154;8.198;2022-08-14T06:38:25;7.63;;;6.95;;
20727;SDS011;10525;50.154;8.198;2022-08-14T06:40:52;8.45;;;7.75;;
20727;SDS011;10525;50.154;8.198;2022-08-14T06:43:19;8.45;;;7.70;;
20727;SDS011;10525;50.154;8.198;2022-08-14T06:45:48;7.88;;;7.10;;
20727;SDS011;10525;50.154;8.198;2022-08-14T06:48:15;7.57;;;6.88;;
20727;SDS011;10525;50.154;8.198;2022-08-14T06:50:45;6.93;;;6.38;;
20727;SDS011;10525;50.154;8.198;2022-08-14T06:53:12;8.00;;;7.25;;
20727;SDS011;10525;50.154;8.198;2022-08-14T06:55:40;7.32;;;6.72;;
20727;SDS011;10525;50.154;8.198;2022-08-14T06:58:09;7.78;;;7.10;;
20727;SDS011;10525;50.154;8.198;2022-08-14T07:00:37;7.47;;;6.85;;
20727;SDS011;10525;50.154;8.198;2022-08-14T07:03:05;7.47;;;6.88;;
20727;SDS011;10525;50.154;8.198;2022-08-14T07:05:49;6.85;;;6.35;;
20727;SDS011;10525;50.154;8.198;2022-08-14T07:08:16;8.38;;;6.85;;
20727;SDS011;10525;50.154;8.198;2022-08-14T07:10:45;7.63;;;6.95;;
20727;SDS011;10525;50.154;8.198;2022-08-14T07:13:13;7.60;;;6.68;;
20727;SDS011;10525;50.154;8.198;2022-08-14T07:15:43;7.43;;;6.68;;
20727;SDS011;10525;50.154;8.198;2022-08-14T07:18:12;7.18;;;6.55;;
20727;SDS011;10525;50.154;8.198;2022-08-14T07:20:39;7.10;;;6.60;;
20727;SDS011;10525;50.154;8.198;2022-08-14T07:23:07;7.38;;;6.68;;
20727;SDS011;10525;50.154;8.198;2022-08-14T07:25:36;7.32;;;6.57;;
20727;SDS011;10525;50.154;8.198;2022-08-14T07:28:07;7.80;;;7.10;;
20727;SDS011;10525;50.154;8.198;2022-08-14T07:30:34;7.15;;;6.45;;
20727;SDS011;10525;50.154;8.198;2022-08-14T07:33:01;7.28;;;6.68;;
20727;SDS011;10525;50.154;8.198;2022-08-14T07:35:29;6.75;;;6.25;;
20727;SDS011;10525;50.154;8.198;2022-08-14T07:37:56;7.40;;;6.70;;
20727;SDS011;10525;50.154;8.198;2022-08-14T07:40:23;6.88;;;6.15;;
20727;SDS011;10525;50.154;8.198;2022-08-14T07:42:50;8.30;;;6.88;;
20727;SDS011;10525;50.154;8.198;2022-08-14T07:45:17;7.03;;;6.38;;
20727;SDS011;10525;50.154;8.198;2022-08-14T07:47:44;7.03;;;6.43;;
20727;SDS011;10525;50.154;8.198;2022-08-14T07:50:11;7.40;;;6.30;;
20727;SDS011;10525;50.154;8.198;2022-08-14T07:52:40;6.53;;;6.03;;
20727;SDS011;10525;50.154;8.198;2022-08-14T07:55:08;8.80;;;6.07;;
20727;SDS011;10525;50.154;8.198;2022-08-14T07:57:36;5.45;;;5.15;;
20727;SDS011;10525;50.154;8.198;2022-08-14T08:00:05;6.28;;;5.57;;
20727;SDS011;10525;50.154;8.198;2022-08-14T08:02:34;5.60;;;5.25;;
20727;SDS011;10525;50.154;8.198;2022-08-14T08:05:04;5.22;;;4.97;;
20727;SDS011;10525;50.154;8.198;2022-08-14T08:07:32;5.80;;;5.45;;
20727;SDS011;10525;50.154;8.198;2022-08-14T08:10:03;13.77;;;5.57;;
20727;SDS011;10525;50.154;8.198;2022-08-14T08:12:48;6.13;;;5.78;;
20727;SDS011;10525;50.154;8.198;2022-08-14T08:15:15;6.57;;;5.88;;
20727;SDS011;10525;50.154;8.198;2022-08-14T08:17:43;6.30;;;5.90;;
20727;SDS011;10525;50.154;8.198;2022-08-14T08:20:13;6.55;;;6.03;;
20727;SDS011;10525;50.154;8.198;2022-08-14T08:22:42;6.50;;;5.90;;
20727;SDS011;10525;50.154;8.198;2022-08-14T08:25:10;7.35;;;6.78;;
20727;SDS011;10525;50.154;8.198;2022-08-14T08:27:37;6.68;;;6.10;;
20727;SDS011;10525;50.154;8.198;2022-08-14T08:30:04;7.00;;;5.78;;
20727;SDS011;10525;50.154;8.198;2022-08-14T08:32:36;6.40;;;5.90;;
20727;SDS011;10525;50.154;8.198;2022-08-14T08:35:08;6.03;;;5.63;;
20727;SDS011;10525;50.154;8.198;2022-08-14T08:37:35;6.10;;;5.60;;
20727;SDS011;10525;50.154;8.198;2022-08-14T08:40:02;6.00;;;5.65;;
20727;SDS011;10525;50.154;8.198;2022-08-14T08:42:31;5.78;;;5.45;;
20727;SDS011;10525;50.154;8.198;2022-08-14T08:44:58;6.57;;;6.07;;
20727;SDS011;10525;50.154;8.198;2022-08-14T08:47:25;5.93;;;5.53;;
20727;SDS011;10525;50.154;8.198;2022-08-14T08:50:02;12.15;;;5.70;;
20727;SDS011;10525;50.154;8.198;2022-08-14T08:52:29;6.30;;;5.30;;
20727;SDS011;10525;50.154;8.198;2022-08-14T08:54:56;6.57;;;5.57;;
20727;SDS011;10525;50.154;8.198;2022-08-14T08:57:23;4.95;;;4.65;;
20727;SDS011;10525;50.154;8.198;2022-08-14T08:59:51;8.60;;;5.35;;
20727;SDS011;10525;50.154;8.198;2022-08-14T09:02:18;5.57;;;5.20;;
20727;SDS011;10525;50.154;8.198;2022-08-14T09:04:44;4.55;;;4.25;;
20727;SDS011;10525;50.154;8.198;2022-08-14T09:07:11;4.18;;;3.97;;
20727;SDS011;10525;50.154;8.198;2022-08-14T09:09:38;4.55;;;4.35;;
20727;SDS011;10525;50.154;8.198;2022-08-14T09:12:15;4.22;;;4.00;;
20727;SDS011;10525;50.154;8.198;2022-08-14T09:14:42;3.70;;;3.60;;
20727;SDS011;10525;50.154;8.198;2022-08-14T09:17:12;3.90;;;3.65;;
20727;SDS011;10525;50.154;8.198;2022-08-14T09:19:40;3.88;;;3.78;;
20727;SDS011;10525;50.154;8.198;2022-08-14T09:22:07;4.53;;;4.22;;
20727;SDS011;10525;50.154;8.198;2022-08-14T09:24:35;4.88;;;4.53;;
20727;SDS011;10525;50.154;8.198;2022-08-14T09:27:01;5.20;;;4.93;;
20727;SDS011;10525;50.154;8.198;2022-08-14T09:29:28;5.38;;;4.45;;
20727;SDS011;10525;50.154;8.198;2022-08-14T09:31:55;4.72;;;4.50;;
20727;SDS011;10525;50.154;8.198;2022-08-14T09:34:32;5.00;;;4.72;;
20727;SDS011;10525;50.154;8.198;2022-08-14T09:37:15;5.30;;;5.00;;
20727;SDS011;10525;50.154;8.198;2022-08-14T09:39:55;4.85;;;4.45;;
20727;SDS011;10525;50.154;8.198;2022-08-14T09:42:34;4.65;;;4.45;;
20727;SDS011;10525;50.154;8.198;2022-08-14T09:45:12;4.30;;;4.10;;
20727;SDS011;10525;50.154;8.198;2022-08-14T09:47:44;4.47;;;4.18;;
20727;SDS011;10525;50.154;8.198;2022-08-14T09:50:21;3.30;;;3.25;;
20727;SDS011;10525;50.154;8.198;2022-08-14T09:52:51;3.60;;;3.40;;
20727;SDS011;10525;50.154;8.198;2022-08-14T09:55:20;4.32;;;4.00;;
20727;SDS011;10525;50.154;8.198;2022-08-14T09:57:48;3.95;;;3.85;;
20727;SDS011;10525;50.154;8.198;2022-08-14T10:00:16;6.00;;;3.88;;
20727;SDS011;10525;50.154;8.198;2022-08-14T10:02:50;4.15;;;3.95;;
20727;SDS011;10525;50.154;8.198;2022-08-14T10:05:27;4.25;;;3.97;;
20727;SDS011;10525;50.154;8.198;2022-08-14T10:07:55;4.50;;;4.07;;
20727;SDS011;10525;50.154;8.198;2022-08-14T10:10:26;5.28;;;3.75;;
20727;SDS011;10525;50.154;8.198;2022-08-14T10:12:58;3.47;;;3.33;;
20727;SDS011;10525;50.154;8.198;2022-08-14T10:15:27;4.60;;;4.30;;
20727;SDS011;10525;50.154;8.198;2022-08-14T10:18:05;3.58;;;3.47;;
20727;SDS011;10525;50.154;8.198;2022-08-14T10:20:35;4.40;;;4.13;;
20727;SDS011;10525;50.154;8.198;2022-08-14T10:23:12;4.53;;;4.00;;
20727;SDS011;10525;50.154;8.198;2022-08-14T10:25:40;4.53;;;4.28;;
20727;SDS011;10525;50.154;8.198;2022-08-14T10:28:08;4.75;;;4.45;;
20727;SDS011;10525;50.154;8.198;2022-08-14T10:30:39;4.60;;;4.30;;
20727;SDS011;10525;50.154;8.198;2022-08-14T10:33:06;4.63;;;4.40;;
20727;SDS011;10525;50.154;8.198;2022-08-14T10:35:41;4.30;;;4.00;;
20727;SDS011;10525;50.154;8.198;2022-08-14T10:38:09;4.38;;;4.03;;
20727;SDS011;10525;50.154;8.198;2022-08-14T10:40:35;4.35;;;4.07;;
20727;SDS011;10525;50.154;8.198;2022-08-14T10:43:14;3.92;;;3.83;;
20727;SDS011;10525;50.154;8.198;2022-08-14T10:45:50;3.95;;;3.83;;
20727;SDS011;10525;50.154;8.198;2022-08-14T10:48:19;4.38;;;4.00;;
20727;SDS011;10525;50.154;8.198;2022-08-14T10:50:47;4.07;;;3.85;;
20727;SDS011;10525;50.154;8.198;2022-08-14T10:53:25;4.95;;;3.88;;
20727;SDS011;10525;50.154;8.198;2022-08-14T10:55:56;3.72;;;3.63;;
20727;SDS011;10525;50.154;8.198;2022-08-14T10:58:26;4.18;;;3.83;;
20727;SDS011;10525;50.154;8.198;2022-08-14T11:00:56;4.05;;;3.95;;
20727;SDS011;10525;50.154;8.198;2022-08-14T11:03:35;3.60;;;3.50;;
20727;SDS011;10525;50.154;8.198;2022-08-14T11:06:11;3.65;;;3.45;;
20727;SDS011;10525;50.154;8.198;2022-08-14T11:08:40;3.17;;;3.13;;
20727;SDS011;10525;50.154;8.198;2022-08-14T11:11:07;7.65;;;4.10;;
20727;SDS011;10525;50.154;8.198;2022-08-14T11:13:33;4.13;;;3.90;;
20727;SDS011;10525;50.154;8.198;2022-08-14T11:16:02;3.70;;;3.60;;
20727;SDS011;10525;50.154;8.198;2022-08-14T11:18:29;3.97;;;3.50;;
20727;SDS011;10525;50.154;8.198;2022-08-14T11:20:56;3.35;;;3.25;;
20727;SDS011;10525;50.154;8.198;2022-08-14T11:23:26;4.18;;;3.92;;
20727;SDS011;10525;50.154;8.198;2022-08-14T11:25:55;4.95;;;4.65;;
20727;SDS011;10525;50.154;8.198;2022-08-14T11:28:24;4.05;;;3.95;;
20727;SDS011;10525;50.154;8.198;2022-08-14T11:30:53;3.92;;;3.70;;
20727;SDS011;10525;50.154;8.198;2022-08-14T11:33:21;3.97;;;3.67;;
20727;SDS011;10525;50.154;8.198;2022-08-14T11:35:49;3.88;;;3.72;;
20727;SDS011;10525;50.154;8.198;2022-08-14T11:38:16;3.00;;;2.70;;
20727;SDS011;10525;50.154;8.198;2022-08-14T11:40:45;3.17;;;3.08;;
20727;SDS011;10525;50.154;8.198;2022-08-14T11:43:12;2.58;;;2.47;;
20727;SDS011;10525;50.154;8.198;2022-08-14T11:45:39;3.28;;;3.08;;
20727;SDS011;10525;50.154;8.198;2022-08-14T11:48:13;3.38;;;3.28;;
20727;SDS011;10525;50.154;8.198;2022-08-14T11:50:42;3.00;;;2.90;;
20727;SDS011;10525;50.154;8.198;2022-08-14T11:53:17;2.50;;;2.45;;
20727;SDS011;10525;50.154;8.198;2022-08-14T11:55:46;2.35;;;2.35;;
20727;SDS011;10525;50.154;8.198;2022-08-14T11:58:23;2.60;;;2.50;;
20727;SDS011;10525;50.154;8.198;2022-08-14T12:00:52;2.92;;;2.83;;
20727;SDS011;10525;50.154;8.198;2022-08-14T12:03:22;3.42;;;3.33;;
20727;SDS011;10525;50.154;8.198;2022-08-14T12:06:02;3.80;;;3.67;;
20727;SDS011;10525;50.154;8.198;2022-08-14T12:08:32;4.00;;;3.90;;
20727;SDS011;10525;50.154;8.198;2022-08-14T12:11:01;3.45;;;3.35;;
20727;SDS011;10525;50.154;8.198;2022-08-14T12:13:29;3.72;;;3.53;;
20727;SDS011;10525;50.154;8.198;2022-08-14T12:15:58;3.97;;;3.80;;
20727;SDS011;10525;50.154;8.198;2022-08-14T12:18:30;4.35;;;4.15;;
20727;SDS011;10525;50.154;8.198;2022-08-14T12:21:09;6.97;;;3.60;;
20727;SDS011;10525;50.154;8.198;2022-08-14T12:23:36;3.67;;;3.58;;
20727;SDS011;10525;50.154;8.198;2022-08-14T12:26:05;4.60;;;3.60;;
20727;SDS011;10525;50.154;8.198;2022-08-14T12:28:35;3.75;;;3.55;;
20727;SDS011;10525;50.154;8.198;2022-08-14T12:31:10;5.97;;;3.92;;
20727;SDS011;10525;50.154;8.198;2022-08-14T12:33:40;4.40;;;4.20;;
20727;SDS011;10525;50.154;8.198;2022-08-14T12:36:08;4.38;;;4.28;;
20727;SDS011;10525;50.154;8.198;2022-08-14T12:38:44;4.15;;;4.00;;
20727;SDS011;10525;50.154;8.198;2022-08-14T12:41:16;4.55;;;4.15;;
20727;SDS011;10525;50.154;8.198;2022-08-14T12:43:46;4.80;;;4.03;;
20727;SDS011;10525;50.154;8.198;2022-08-14T12:46:25;3.83;;;3.72;;
20727;SDS011;10525;50.154;8.198;2022-08-14T12:48:54;4.50;;;4.28;;
20727;SDS011;10525;50.154;8.198;2022-08-14T12:51:24;4.10;;;4.00;;
20727;SDS011;10525;50.154;8.198;2022-08-14T12:53:52;5.00;;;4.30;;
20727;SDS011;10525;50.154;8.198;2022-08-14T12:56:20;4.78;;;4.30;;
20727;SDS011;10525;50.154;8.198;2022-08-14T12:58:50;4.35;;;4.15;;
20727;SDS011;10525;50.154;8.198;2022-08-14T13:01:19;4.40;;;4.20;;
20727;SDS011;10525;50.154;8.198;2022-08-14T13:03:48;4.30;;;3.90;;
20727;SDS011;10525;50.154;8.198;2022-08-14T13:06:15;4.45;;;4.10;;
20727;SDS011;10525;50.154;8.198;2022-08-14T13:08:43;3.80;;;3.50;;
20727;SDS011;10525;50.154;8.198;2022-08-14T13:11:10;3.50;;;3.40;;
20727;SDS011;10525;50.154;8.198;2022-08-14T13:13:41;3.53;;;3.42;;
20727;SDS011;10525;50.154;8.198;2022-08-14T13:16:10;3.58;;;3.38;;
20727;SDS011;10525;50.154;8.198;2022-08-14T13:18:41;4.15;;;3.95;;
20727;SDS011;10525;50.154;8.198;2022-08-14T13:21:10;3.80;;;3.60;;
20727;SDS011;10525;50.154;8.198;2022-08-14T13:23:39;4.03;;;3.70;;
20727;SDS011;10525;50.154;8.198;2022-08-14T13:26:07;3.90;;;3.78;;
20727;SDS011;10525;50.154;8.198;2022-08-14T13:28:36;4.32;;;3.85;;
20727;SDS011;10525;50.154;8.198;2022-08-14T13:34:21;3.97;;;3.83;;
20727;SDS011;10525;50.154;8.198;2022-08-14T13:40:46;4.45;;;4.15;;
20727;SDS011;10525;50.154;8.198;2022-08-14T13:43:19;3.85;;;3.65;;
20727;SDS011;10525;50.154;8.198;2022-08-14T13:45:48;5.15;;;4.72;;
20727;SDS011;10525;50.154;8.198;2022-08-14T13:48:16;4.10;;;3.90;;
20727;SDS011;10525;50.154;8.198;2022-08-14T13:50:43;5.00;;;4.28;;
20727;SDS011;10525;50.154;8.198;2022-08-14T13:53:12;4.60;;;4.10;;
20727;SDS011;10525;50.154;8.198;2022-08-14T13:55:40;4.18;;;3.97;;
20727;SDS011;10525;50.154;8.198;2022-08-14T13:58:09;4.00;;;3.80;;
20727;SDS011;10525;50.154;8.198;2022-08-14T14:00:38;4.28;;;4.07;;
20727;SDS011;10525;50.154;8.198;2022-08-14T14:03:04;4.43;;;4.13;;
20727;SDS011;10525;50.154;8.198;2022-08-14T14:05:34;4.43;;;4.03;;
20727;SDS011;10525;50.154;8.198;2022-08-14T14:08:03;3.63;;;3.53;;
20727;SDS011;10525;50.154;8.198;2022-08-14T14:10:31;5.03;;;4.40;;
20727;SDS011;10525;50.154;8.198;2022-08-14T14:13:01;4.10;;;3.80;;
20727;SDS011;10525;50.154;8.198;2022-08-14T14:15:28;4.88;;;4.57;;
20727;SDS011;10525;50.154;8.198;2022-08-14T14:17:55;4.65;;;4.22;;
20727;SDS011;10525;50.154;8.198;2022-08-14T14:20:23;4.85;;;4.43;;
20727;SDS011;10525;50.154;8.198;2022-08-14T14:22:51;4.75;;;4.15;;
20727;SDS011;10525;50.154;8.198;2022-08-14T14:25:18;4.30;;;4.00;;
20727;SDS011;10525;50.154;8.198;2022-08-14T14:27:46;5.30;;;4.80;;
20727;SDS011;10525;50.154;8.198;2022-08-14T14:30:15;4.93;;;4.63;;
20727;SDS011;10525;50.154;8.198;2022-08-14T14:32:46;5.57;;;5.20;;
20727;SDS011;10525;50.154;8.198;2022-08-14T14:35:14;5.63;;;5.18;;
20727;SDS011;10525;50.154;8.198;2022-08-14T14:37:43;6.00;;;5.40;;
20727;SDS011;10525;50.154;8.198;2022-08-14T14:40:12;5.60;;;5.20;;
20727;SDS011;10525;50.154;8.198;2022-08-14T14:42:43;5.65;;;5.07;;
20727;SDS011;10525;50.154;8.198;2022-08-14T14:45:13;5.95;;;5.38;;
20727;SDS011;10525;50.154;8.198;2022-08-14T14:47:42;5.50;;;5.03;;
20727;SDS011;10525;50.154;8.198;2022-08-14T14:50:10;5.65;;;4.40;;
20727;SDS011;10525;50.154;8.198;2022-08-14T14:52:37;6.10;;;5.55;;
20727;SDS011;10525;50.154;8.198;2022-08-14T14:55:05;5.40;;;5.10;;
20727;SDS011;10525;50.154;8.198;2022-08-14T14:57:37;4.97;;;4.70;;
20727;SDS011;10525;50.154;8.198;2022-08-14T15:00:06;6.00;;;4.95;;
20727;SDS011;10525;50.154;8.198;2022-08-14T15:02:37;5.82;;;5.22;;
20727;SDS011;10525;50.154;8.198;2022-08-14T15:05:05;5.35;;;4.85;;